Time;durP1;ratioP1;P1;durP2;ratioP2;P2;SDS_P1;SDS_P2;PMS_P1;PMS_P2;Temp;Humidity;BMP_temperature;BMP_pressure;BME280_temperature;BME280_humidity;BME280_pressure;Samples;Min_cycle;Max_cycle;Signal;HPM_P1;HPM_P2
2022/03/30 00:05:58;;;;;;;1999.90;999.90;;;;;;;6.44;55.83;100254.41;15428376;28;20074;-60
2022/03/30 00:13:31;;;;;;;1999.90;999.90;;;;;;;6.35;56.20;100253.53;15431631;28;20077;-60
2022/03/30 00:21:04;;;;;;;1999.90;999.90;;;;;;;5.95;57.69;100247.09;15429008;28;20043;-61
2022/03/30 00:28:37;;;;;;;1999.90;999.90;;;;;;;5.82;58.29;100254.25;15429856;28;20097;-61
2022/03/30 00:36:10;;;;;;;1999.90;999.90;;;;;;;5.68;58.25;100242.41;15427826;28;20407;-60
2022/03/30 00:43:44;;;;;;;1999.90;999.90;;;;;;;5.64;58.08;100253.28;15428738;28;20126;-60
2022/03/30 00:51:16;;;;;;;1999.90;999.90;;;;;;;5.50;58.54;100246.94;15427254;28;20062;-60
2022/03/30 00:58:50;;;;;;;1999.90;999.90;;;;;;;5.40;58.36;100249.94;15428975;28;20051;-60
2022/03/30 01:06:25;;;;;;;1999.90;999.90;;;;;;;5.13;59.89;100242.50;15386819;28;20047;-61
2022/03/30 01:13:58;;;;;;;1999.90;999.90;;;;;;;5.11;59.82;100225.41;15414062;28;20053;-61
2022/03/30 01:21:31;;;;;;;1999.90;999.90;;;;;;;5.10;60.33;100223.75;15428727;28;20046;-61
2022/03/30 01:32:24;;;;;;;1999.90;999.90;;;;;;;4.89;60.22;100231.63;15426555;28;20050;-60
2022/03/30 01:37:01;;;;;;;1999.90;999.90;;;;;;;4.88;59.61;100217.00;15427433;28;20047;-60
2022/03/30 01:44:36;;;;;;;;;;;;;;;4.88;60.04;100213.41;15426554;28;20051;-64
2022/03/30 01:52:20;;;;;;;1999.90;999.90;;;;;;;4.48;61.98;100209.47;15430974;28;20028;-59
2022/03/30 01:59:55;;;;;;;1999.90;999.90;;;;;;;4.40;61.34;100197.22;15426357;28;20118;-60
2022/03/30 02:07:30;;;;;;;1999.90;999.90;;;;;;;4.43;61.13;100195.78;15427115;28;20416;-61
2022/03/30 02:15:02;;;;;;;1999.90;999.90;;;;;;;4.26;61.24;100202.69;15425973;28;20135;-60
2022/03/30 02:22:38;;;;;;;1999.90;999.90;;;;;;;4.17;61.67;100185.22;15426597;28;20078;-59
2022/03/30 02:30:13;;;;;;;1999.90;999.90;;;;;;;4.12;61.18;100187.22;15450255;23;20440;-60
2022/03/30 02:37:46;;;;;;;1999.90;999.90;;;;;;;4.01;62.00;100181.88;15460867;28;20408;-62
2022/03/30 02:45:19;;;;;;;1999.90;999.90;;;;;;;4.02;62.37;100189.03;15445676;28;20038;-61
2022/03/30 02:52:52;;;;;;;1999.90;999.90;;;;;;;3.95;62.73;100188.59;15443778;28;20129;-61
2022/03/30 03:00:27;;;;;;;1999.90;999.90;;;;;;;3.93;62.49;100188.09;15443340;28;20107;-60
2022/03/30 03:08:01;;;;;;;1999.90;999.90;;;;;;;3.89;62.81;100192.56;15392852;28;20055;-61
2022/03/30 03:15:35;;;;;;;1999.90;999.90;;;;;;;3.62;63.16;100187.75;15385584;28;20424;-61
2022/03/30 03:23:10;;;;;;;1999.90;999.90;;;;;;;3.51;63.67;100171.66;15382909;28;20066;-60
2022/03/30 03:30:42;;;;;;;1999.90;999.90;;;;;;;3.61;63.43;100168.75;15383602;28;20094;-60
2022/03/30 03:38:16;;;;;;;1999.90;999.90;;;;;;;3.68;63.01;100174.72;15382794;28;20046;-59
2022/03/30 03:45:48;;;;;;;1999.90;999.90;;;;;;;3.56;63.05;100172.41;15382438;28;20040;-60
2022/03/30 03:53:22;;;;;;;1999.90;999.90;;;;;;;3.53;63.07;100174.94;15382175;28;20047;-61
2022/03/30 04:00:54;;;;;;;1999.90;999.90;;;;;;;3.48;63.12;100178.59;15382313;28;20063;-62
2022/03/30 04:08:27;;;;;;;1999.90;999.90;;;;;;;3.38;63.67;100173.22;15394163;28;20094;-59
2022/03/30 04:16:00;;;;;;;1999.90;999.90;;;;;;;3.38;62.97;100160.25;15409809;28;20453;-61
2022/03/30 04:23:33;;;;;;;1999.90;999.90;;;;;;;3.35;63.34;100168.31;15399278;28;20380;-60
2022/03/30 04:31:05;;;;;;;;;;;;;;;3.34;64.01;100166.69;15378310;28;20513;-60
2022/03/30 04:38:48;;;;;;;1999.90;999.90;;;;;;;3.20;64.51;100158.31;15376500;28;19923;-62
2022/03/30 04:46:20;;;;;;;;;;;;;;;3.56;63.92;100166.91;15377723;28;20475;-61
2022/03/30 04:53:54;;;;;;;1999.90;999.90;;;;;;;3.59;63.99;100157.19;15375306;28;19929;-59
2022/03/30 05:01:26;;;;;;;1999.90;999.90;;;;;;;3.59;64.87;100158.00;15390392;28;20051;-62
2022/03/30 05:09:00;;;;;;;1999.90;999.90;;;;;;;4.01;63.11;100147.94;15376286;28;20128;-58
2022/03/30 05:16:33;;;;;;;1999.90;999.90;;;;;;;4.14;64.03;100152.66;15374705;28;20508;-60
2022/03/30 05:24:11;;;;;;;1999.90;999.90;;;;;;;4.29;63.12;100155.16;15374487;29;20039;-60
2022/03/30 05:31:46;;;;;;;1999.90;999.90;;;;;;;4.41;62.21;100162.13;15390253;28;20071;-60
2022/03/30 05:39:20;;;;;;;1999.90;999.90;;;;;;;4.64;61.97;100150.03;15390006;28;20074;-63
2022/03/30 05:46:55;;;;;;;1999.90;999.90;;;;;;;4.84;61.43;100162.63;15374844;28;20090;-60
2022/03/30 05:54:28;;;;;;;1999.90;999.90;;;;;;;5.08;62.16;100154.91;15390063;28;20138;-61
2022/03/30 06:02:02;;;;;;;1999.90;999.90;;;;;;;5.35;61.34;100151.28;15377342;28;20062;-63
2022/03/30 06:09:36;;;;;;;1999.90;999.90;;;;;;;5.71;60.32;100154.00;15386746;28;20051;-60
2022/03/30 06:17:11;;;;;;;1999.90;999.90;;;;;;;5.75;61.95;100148.69;15388442;28;20122;-62
2022/03/30 06:24:44;;;;;;;1999.90;999.90;;;;;;;6.28;61.52;100145.94;15371660;28;20047;-62
2022/03/30 06:32:18;;;;;;;1999.90;999.90;;;;;;;6.85;61.11;100134.91;15385192;28;20508;-61
2022/03/30 06:39:51;;;;;;;1999.90;999.90;;;;;;;7.32;59.19;100137.13;15385381;28;20062;-62
2022/03/30 06:47:23;;;;;;;;;;;;;;;7.78;58.57;100139.22;15385675;28;20504;-61
2022/03/30 06:54:57;;;;;;;1999.90;999.90;;;;;;;8.29;56.36;100143.88;15398987;23;20376;-59
2022/03/30 07:02:29;;;;;;;1999.90;999.90;;;;;;;8.24;56.71;100138.50;15487344;28;20171;-60
2022/03/30 07:10:18;;;;;;;1999.90;999.90;;;;;;;8.80;55.99;100130.94;15502132;22;20526;-75
2022/03/30 07:17:52;;;;;;;1999.90;999.90;;;;;;;10.60;50.84;100131.66;15426091;28;20058;-75
2022/03/30 07:25:27;;;;;;;1999.90;999.90;;;;;;;11.34;48.65;100124.88;15379231;29;20186;-74
2022/03/30 07:33:01;;;;;;;1999.90;999.90;;;;;;;12.52;46.36;100126.25;15379958;29;20078;-75
2022/03/30 07:40:35;;;;;;;1999.90;999.90;;;;;;;13.44;44.41;100116.50;15380421;28;20058;-74
2022/03/30 07:48:12;;;;;;;1999.90;999.90;;;;;;;12.22;45.85;100114.66;15379066;29;20449;-75
2022/03/30 07:55:47;;;;;;;1999.90;999.90;;;;;;;13.20;44.16;100119.53;15377895;28;20488;-75
2022/03/30 08:03:19;;;;;;;1999.90;999.90;;;;;;;11.44;44.56;100120.78;15379639;28;20381;-75
2022/03/30 08:10:53;;;;;;;1999.90;999.90;;;;;;;11.38;46.21;100113.84;15380577;28;20078;-74
2022/03/30 08:18:25;;;;;;;1999.90;999.90;;;;;;;12.39;42.13;100108.72;15396322;28;20057;-74
2022/03/30 08:25:59;;;;;;;1999.90;999.90;;;;;;;13.56;40.78;100107.13;15435963;28;20053;-74
2022/03/30 08:33:31;;;;;;;1999.90;999.90;;;;;;;13.26;41.29;100113.28;15428133;28;20463;-76
2022/03/30 08:41:09;;;;;;;1999.90;999.90;;;;;;;12.89;38.71;100115.56;15427118;28;20130;-72
2022/03/30 08:48:41;;;;;;;1999.90;999.90;;;;;;;13.68;40.09;100114.59;15384133;28;20089;-73
2022/03/30 08:56:17;;;;;;;1999.90;999.90;;;;;;;12.77;40.94;100120.47;15394656;28;20058;-72
2022/03/30 09:03:56;;;;;;;1999.90;999.90;;;;;;;13.36;38.95;100106.31;15460701;28;20047;-74
2022/03/30 09:11:37;;;;;;;1999.90;999.90;;;;;;;12.78;39.14;100105.28;15387761;29;20043;-76
2022/03/30 09:19:11;;;;;;;1999.90;999.90;;;;;;;12.04;39.55;100100.19;15430128;28;20051;-75
2022/03/30 09:26:45;;;;;;;1999.90;999.90;;;;;;;13.09;39.01;100099.66;15415393;28;20062;-75
2022/03/30 09:34:24;;;;;;;1999.90;999.90;;;;;;;12.67;37.57;100100.25;15477473;28;20464;-75
2022/03/30 09:42:13;;;;;;;1999.90;999.90;;;;;;;12.80;38.81;100089.75;15439343;28;20133;-75
2022/03/30 09:50:07;;;;;;;1999.90;999.90;;;;;;;13.83;38.44;100088.44;15416616;28;20133;-76
2022/03/30 09:58:07;;;;;;;1999.90;999.90;;;;;;;13.09;37.74;100082.84;15410816;28;20465;-75
2022/03/30 10:05:57;;;;;;;1999.90;999.90;;;;;;;13.47;36.28;100079.31;15432464;28;20110;-75
2022/03/30 10:13:33;;;;;;;1999.90;999.90;;;;;;;14.03;35.75;100064.00;15435047;28;20042;-75
2022/03/30 10:21:22;;;;;;;1999.90;999.90;;;;;;;13.52;38.92;100070.59;15436778;28;20047;-74
2022/03/30 10:29:11;;;;;;;1999.90;999.90;;;;;;;13.08;36.09;100046.78;15405974;28;20055;-75
2022/03/30 10:37:00;;;;;;;1999.90;999.90;;;;;;;12.49;37.45;100054.19;15419145;28;20523;-75
2022/03/30 10:44:41;;;;;;;1999.90;999.90;;;;;;;13.05;36.00;100042.75;15414535;28;20082;-74
2022/03/30 10:52:38;;;;;;;1999.90;999.90;;;;;;;12.49;37.25;100036.59;15405931;28;20062;-74
2022/03/30 11:00:20;;;;;;;1999.90;999.90;;;;;;;12.15;37.42;100027.78;15409184;28;20491;-74
2022/03/30 11:07:52;;;;;;;1999.90;999.90;;;;;;;13.13;35.39;100033.31;15440445;28;20499;-73
2022/03/30 11:16:07;;;;;;;1999.90;999.90;;;;;;;13.06;36.06;100032.34;15432667;28;20162;-74
2022/03/30 11:23:40;;;;;;;1999.90;999.90;;;;;;;12.40;38.98;100028.38;15421453;28;20047;-75
2022/03/30 11:31:21;;;;;;;1999.90;999.90;;;;;;;12.85;35.76;100027.09;15417933;28;20043;-74
2022/03/30 11:39:01;;;;;;;1999.90;999.90;;;;;;;14.49;33.07;100017.16;15430523;28;20039;-75
2022/03/30 11:46:38;;;;;;;1999.90;999.90;;;;;;;13.56;35.07;100004.22;15414913;28;20468;-74
2022/03/30 11:54:12;;;;;;;1999.90;999.90;;;;;;;13.98;33.70;99997.81;15390295;28;20043;-74
2022/03/30 12:01:45;;;;;;;;;;;;;;;13.94;34.05;99996.09;15404640;28;20054;-75
2022/03/30 12:09:18;;;;;;;1999.90;999.90;;;;;;;14.34;32.59;99987.19;15400482;28;19981;-74
2022/03/30 12:16:52;;;;;;;1999.90;999.90;;;;;;;14.77;33.14;99987.88;15385120;28;20397;-75
2022/03/30 12:24:33;;;;;;;1999.90;999.90;;;;;;;14.59;31.79;99981.97;15392815;28;20142;-75
2022/03/30 12:32:10;;;;;;;1999.90;999.90;;;;;;;13.86;33.01;99981.16;15402500;28;20074;-74
2022/03/30 12:39:44;;;;;;;1999.90;999.90;;;;;;;12.62;34.27;99974.59;15411394;28;20042;-74
2022/03/30 12:47:28;;;;;;;1999.90;999.90;;;;;;;13.19;33.47;99966.63;15438388;28;20043;-74
2022/03/30 12:55:18;;;;;;;1999.90;999.90;;;;;;;13.45;34.20;99965.97;15460525;28;20089;-74
2022/03/30 13:03:05;;;;;;;1999.90;999.90;;;;;;;13.45;34.39;99949.16;15456247;28;20077;-74
2022/03/30 13:10:53;;;;;;;1999.90;999.90;;;;;;;14.02;33.29;99942.56;15434315;28;20043;-74
2022/03/30 13:18:27;;;;;;;1999.90;999.90;;;;;;;13.51;34.33;99945.66;15433031;28;20472;-72
2022/03/30 13:25:59;;;;;;;1999.90;999.90;;;;;;;13.55;34.08;99934.53;15420687;28;20496;-74
2022/03/30 13:33:35;;;;;;;1999.90;999.90;;;;;;;13.60;34.18;99925.00;15406194;28;20572;-74
2022/03/30 13:41:07;;;;;;;1999.90;999.90;;;;;;;12.58;36.11;99914.91;15395738;28;20500;-74
2022/03/30 13:48:42;;;;;;;1999.90;999.90;;;;;;;12.03;37.15;99905.66;15446199;28;20047;-73
2022/03/30 13:56:15;;;;;;;1999.90;999.90;;;;;;;12.24;36.85;99908.13;15434407;28;20078;-74
2022/03/30 14:03:49;;;;;;;;;;;;;;;12.57;36.47;99904.88;15398956;28;20054;-73
2022/03/30 14:11:21;;;;;;;1999.90;999.90;;;;;;;12.47;35.73;99897.06;15429060;28;19922;-73
2022/03/30 14:18:54;;;;;;;1999.90;999.90;;;;;;;12.81;36.16;99895.41;15370372;28;20079;-73
2022/03/30 14:26:26;;;;;;;1999.90;999.90;;;;;;;12.61;37.04;99883.41;15419812;28;20142;-72
2022/03/30 14:34:00;;;;;;;1999.90;999.90;;;;;;;13.01;36.76;99890.63;15405682;28;20047;-72
2022/03/30 14:41:32;;;;;;;1999.90;999.90;;;;;;;12.89;36.21;99871.16;15466474;23;20064;-84
2022/03/30 14:49:06;;;;;;;1999.90;999.90;;;;;;;12.67;37.29;99872.72;15521893;28;20046;-84
2022/03/30 14:56:38;;;;;;;1999.90;999.90;;;;;;;12.83;37.12;99867.06;15518733;28;20505;-84
2022/03/30 15:04:14;;;;;;;1999.90;999.90;;;;;;;12.20;37.90;99858.91;15511963;28;20058;-82
2022/03/30 15:11:49;;;;;;;1999.90;999.90;;;;;;;12.65;37.93;99863.88;15450886;23;20058;-61
2022/03/30 15:19:25;;;;;;;1999.90;999.90;;;;;;;12.18;36.30;99858.44;15440439;28;20058;-61
2022/03/30 15:26:57;;;;;;;1999.90;999.90;;;;;;;11.46;38.60;99848.31;15405429;28;20039;-61
2022/03/30 15:34:31;;;;;;;1999.90;999.90;;;;;;;11.33;39.08;99855.13;15386644;28;20051;-61
2022/03/30 15:42:03;;;;;;;1999.90;999.90;;;;;;;11.54;38.66;99857.66;15373429;29;20081;-60
2022/03/30 15:49:37;;;;;;;1999.90;999.90;;;;;;;11.13;39.11;99854.19;15363251;28;20572;-59
2022/03/30 15:57:09;;;;;;;1999.90;999.90;;;;;;;10.97;39.85;99854.19;15359548;29;20227;-59
2022/03/30 16:04:43;;;;;;;1999.90;999.90;;;;;;;10.84;40.36;99860.19;15365190;29;20154;-59
2022/03/30 16:12:19;;;;;;;1999.90;999.90;;;;;;;10.84;39.35;99865.75;15368833;29;20046;-59
2022/03/30 16:20:17;;;;;;;1999.90;999.90;;;;;;;10.50;40.19;99873.53;15365537;29;20047;-60
2022/03/30 16:27:48;;;;;;;1999.90;999.90;;;;;;;10.47;39.37;99859.47;15372410;28;20047;-60
2022/03/30 16:35:22;;;;;;;1999.90;999.90;;;;;;;10.44;38.87;99868.56;15373496;29;20052;-56
2022/03/30 16:42:55;;;;;;;1999.90;999.90;;;;;;;10.25;38.43;99874.75;15376645;28;20404;-60
2022/03/30 16:50:33;;;;;;;1999.90;999.90;;;;;;;9.95;39.30;99879.75;15372736;28;20047;-58
2022/03/30 16:58:06;;;;;;;1999.90;999.90;;;;;;;10.27;39.14;99869.63;15371427;28;20036;-60
2022/03/30 17:05:40;;;;;;;1999.90;999.90;;;;;;;10.09;38.55;99888.56;15362442;29;20191;-56
2022/03/30 17:13:13;;;;;;;1999.90;999.90;;;;;;;9.76;39.05;99883.94;15356152;29;20044;-58
2022/03/30 17:20:46;;;;;;;1999.90;999.90;;;;;;;9.68;38.21;99884.84;15353033;28;20043;-60
2022/03/30 17:28:19;;;;;;;;;;;;;;;9.59;37.89;99895.31;15367870;28;20058;-59
2022/03/30 17:35:52;;;;;;;1999.90;999.90;;;;;;;9.42;38.37;99907.44;15386705;28;19922;-60
2022/03/30 17:43:24;;;;;;;1999.90;999.90;;;;;;;9.26;38.50;99901.72;15369346;28;20118;-60
2022/03/30 17:58:47;;;;;;;1999.90;999.90;;;;;;;8.86;38.55;99914.56;15369662;28;20049;-59
2022/03/30 18:06:21;;;;;;;1999.90;999.90;;;;;;;8.62;39.58;99913.28;15378915;29;20043;-59
2022/03/30 18:13:54;;;;;;;1999.90;999.90;;;;;;;8.45;40.26;99916.22;15372988;29;20043;-61
2022/03/30 18:21:28;;;;;;;1999.90;999.90;;;;;;;8.52;41.36;99929.56;15374830;29;20050;-59
2022/03/30 18:29:00;;;;;;;1999.90;999.90;;;;;;;8.27;42.20;99934.94;15368756;28;20102;-57
2022/03/30 18:36:36;;;;;;;1999.90;999.90;;;;;;;8.47;42.56;99932.56;15376046;28;20061;-60
2022/03/30 18:44:08;;;;;;;1999.90;999.90;;;;;;;8.57;41.60;99946.06;15367533;29;20053;-59
2022/03/30 18:51:42;;;;;;;1999.90;999.90;;;;;;;8.43;42.38;99956.59;15369369;29;20054;-59
2022/03/30 18:59:16;;;;;;;1999.90;999.90;;;;;;;8.23;42.53;99953.44;15337616;29;20071;-59
2022/03/30 19:06:50;;;;;;;1999.90;999.90;;;;;;;8.26;42.55;99951.94;15376512;29;20078;-59
2022/03/30 19:14:25;;;;;;;1999.90;999.90;;;;;;;8.16;42.27;99963.44;15369564;28;20134;-58
2022/03/30 19:21:58;;;;;;;1999.90;999.90;;;;;;;7.98;42.03;99968.25;15379342;29;20055;-59
2022/03/30 19:29:30;;;;;;;1999.90;999.90;;;;;;;8.17;41.42;99953.97;15382272;28;20067;-60
2022/03/30 19:37:04;;;;;;;1999.90;999.90;;;;;;;8.04;41.71;99964.97;15364554;29;20432;-61
2022/03/30 19:44:37;;;;;;;;;;;;;;;8.17;41.71;99959.53;15375695;28;20043;-57
2022/03/30 19:52:10;;;;;;;1999.90;999.90;;;;;;;8.07;41.91;99966.25;15383869;28;19922;-60
2022/03/30 19:59:42;;;;;;;1999.90;999.90;;;;;;;7.82;42.52;99965.25;15385554;28;20421;-61
2022/03/30 20:07:16;;;;;;;1999.90;999.90;;;;;;;7.70;42.55;99967.88;15380717;29;20043;-62
2022/03/30 20:14:49;;;;;;;1999.90;999.90;;;;;;;7.77;42.63;99965.41;15378727;28;20567;-60
2022/03/30 20:22:22;;;;;;;1999.90;999.90;;;;;;;7.57;42.65;99963.34;15378378;28;20051;-59
2022/03/30 20:29:55;;;;;;;1999.90;999.90;;;;;;;7.48;42.79;99957.81;15352700;28;20040;-59
2022/03/30 20:37:29;;;;;;;1999.90;999.90;;;;;;;7.42;43.48;99964.72;15359733;29;20134;-60
2022/03/30 20:45:01;;;;;;;1999.90;999.90;;;;;;;7.34;44.05;99958.03;15326104;28;20048;-62
2022/03/30 20:52:35;;;;;;;1999.90;999.90;;;;;;;7.11;44.34;99964.94;15377993;28;20043;-62
2022/03/30 21:00:09;;;;;;;1999.90;999.90;;;;;;;7.12;44.59;99956.28;15368884;28;20051;-60
2022/03/30 21:07:45;;;;;;;1999.90;999.90;;;;;;;7.11;45.31;99954.63;15376013;28;20040;-58
2022/03/30 21:15:17;;;;;;;1999.90;999.90;;;;;;;6.89;45.62;99966.72;15361506;28;20104;-60
2022/03/30 21:22:51;;;;;;;1999.90;999.90;;;;;;;6.79;46.11;99961.50;15364214;29;20043;-62
2022/03/30 21:30:26;;;;;;;1999.90;999.90;;;;;;;6.70;47.13;99955.16;15372492;29;20126;-60
2022/03/30 21:38:00;;;;;;;1999.90;999.90;;;;;;;6.57;48.07;99956.94;15374380;28;20041;-61
2022/03/30 21:45:33;;;;;;;1999.90;999.90;;;;;;;6.61;48.16;99966.22;15357897;29;20061;-60
2022/03/30 21:53:06;;;;;;;1999.90;999.90;;;;;;;6.53;48.47;99960.66;15385618;28;20420;-61
2022/03/30 22:00:41;;;;;;;1999.90;999.90;;;;;;;6.49;49.14;99949.41;15359440;28;20050;-61
2022/03/30 22:08:15;;;;;;;1999.90;999.90;;;;;;;6.78;48.41;99962.66;15358595;29;20131;-61
2022/03/30 22:15:51;;;;;;;1999.90;999.90;;;;;;;6.38;49.76;99973.03;15376609;29;20043;-60
2022/03/30 22:23:25;;;;;;;1999.90;999.90;;;;;;;5.91;51.87;99969.97;15376273;28;20459;-60
2022/03/30 22:30:57;;;;;;;1999.90;999.90;;;;;;;5.73;52.63;99971.81;15377603;28;20106;-61
2022/03/30 22:38:31;;;;;;;1999.90;999.90;;;;;;;5.85;53.00;99967.63;15361500;29;20508;-61
2022/03/30 22:46:03;;;;;;;1999.90;999.90;;;;;;;5.61;53.32;99968.81;15377016;28;20053;-60
2022/03/30 22:53:38;;;;;;;1999.90;999.90;;;;;;;5.53;53.57;99961.31;15386220;28;20094;-60
2022/03/30 23:01:11;;;;;;;1999.90;999.90;;;;;;;5.49;53.26;99971.34;15385713;29;20067;-61
2022/03/30 23:08:47;;;;;;;1999.90;999.90;;;;;;;5.51;53.28;99972.66;15384983;29;20051;-60
2022/03/30 23:16:22;;;;;;;1999.90;999.90;;;;;;;5.37;53.64;99977.47;15385447;29;20043;-61
2022/03/30 23:23:55;;;;;;;1999.90;999.90;;;;;;;5.04;54.19;99962.28;15380064;28;20082;-60
2022/03/30 23:31:27;;;;;;;1999.90;999.90;;;;;;;4.82;55.40;99955.63;15378330;29;20049;-61
2022/03/30 23:39:05;;;;;;;1999.90;999.90;;;;;;;4.92;55.17;99955.38;15398225;29;20071;-61
2022/03/30 23:46:38;;;;;;;1999.90;999.90;;;;;;;5.06;54.52;99963.59;15383409;29;20655;-60
2022/03/30 23:54:12;;;;;;;1999.90;999.90;;;;;;;5.01;54.88;99965.69;15382901;28;20051;-61
